Time;durP1;ratioP1;P1;durP2;ratioP2;P2;SDS_P1;SDS_P2;PMS_P1;PMS_P2;Temp;Humidity;BMP_temperature;BMP_pressure;BME280_temperature;BME280_humidity;BME280_pressure;Samples;Min_cycle;Max_cycle;Signal;HPM_P1;HPM_P2
2022/02/07 00:01:14;;;;;;;3.78;1.02;;;;;;;2.75;71.58;100195.91;5048014;28;20048;-58
2022/02/07 00:03:47;;;;;;;4.82;1.80;;;;;;;2.78;72.07;100201.13;5047821;28;20106;-59
2022/02/07 00:06:14;;;;;;;11.73;1.25;;;;;;;2.78;71.40;100200.25;5048713;28;20083;-58
2022/02/07 00:08:42;;;;;;;4.47;1.60;;;;;;;2.79;71.32;100197.75;5044283;28;20052;-56
2022/02/07 00:11:08;;;;;;;2.05;1.17;;;;;;;2.79;71.71;100205.44;5054413;28;20135;-59
2022/02/07 00:13:35;;;;;;;2.83;1.58;;;;;;;2.79;72.15;100212.22;5047771;28;20091;-59
2022/02/07 00:16:02;;;;;;;5.22;0.98;;;;;;;2.79;72.66;100213.09;5050094;28;20439;-56
2022/02/07 00:18:29;;;;;;;0.88;0.88;;;;;;;2.76;73.06;100207.00;5049329;28;20417;-58
2022/02/07 00:20:57;;;;;;;6.70;1.42;;;;;;;2.80;71.79;100207.16;5050773;28;20057;-59
2022/02/07 00:23:24;;;;;;;3.58;2.00;;;;;;;2.76;73.25;100207.88;5051484;28;20053;-57
2022/02/07 00:25:50;;;;;;;1.88;1.55;;;;;;;2.76;72.96;100218.13;5050757;28;20110;-58
2022/02/07 00:28:17;;;;;;;2.65;1.40;;;;;;;2.75;71.97;100223.19;5057907;28;20103;-58
2022/02/07 00:30:43;;;;;;;2.47;1.05;;;;;;;2.76;72.21;100238.56;5041289;28;20053;-57
2022/02/07 00:33:10;;;;;;;1.50;0.82;;;;;;;2.77;72.45;100263.34;5053797;28;20554;-56
2022/02/07 00:35:37;;;;;;;4.57;1.90;;;;;;;2.77;73.10;100273.56;5045182;28;20090;-59
2022/02/07 00:38:10;;;;;;;7.30;1.52;;;;;;;2.75;72.29;100292.25;5044984;28;20053;-58
2022/02/07 00:40:45;;;;;;;4.90;2.47;;;;;;;2.75;72.15;100298.25;5054428;28;20049;-56
2022/02/07 00:43:28;;;;;;;8.02;1.17;;;;;;;2.70;72.03;100309.97;5045602;28;20049;-59
2022/02/07 00:46:03;;;;;;;3.75;1.58;;;;;;;2.69;72.53;100308.25;5051038;28;20085;-58
2022/02/07 00:48:30;;;;;;;2.00;1.15;;;;;;;2.64;72.83;100325.16;5044595;28;20049;-57
2022/02/07 00:50:57;;;;;;;5.60;0.73;;;;;;;2.66;72.76;100338.84;5056600;28;20607;-58
2022/02/07 00:53:24;;;;;;;6.38;1.98;;;;;;;2.65;71.53;100353.34;5043246;28;20481;-58
2022/02/07 00:55:52;;;;;;;1.42;1.02;;;;;;;2.60;72.48;100359.09;5051885;28;20057;-59
2022/02/07 00:58:20;;;;;;;4.15;1.77;;;;;;;2.59;72.01;100377.81;5046774;28;20699;-58
2022/02/07 01:00:48;;;;;;;3.47;1.65;;;;;;;2.59;72.01;100382.91;5045818;28;20053;-57
2022/02/07 01:03:15;;;;;;;4.90;1.60;;;;;;;2.56;72.70;100399.91;5051331;28;20047;-55
2022/02/07 01:05:41;;;;;;;7.10;1.30;;;;;;;2.52;71.79;100403.19;5042298;28;20045;-57
2022/02/07 01:08:08;;;;;;;8.13;1.60;;;;;;;2.48;73.12;100411.56;5055150;28;20041;-60
2022/02/07 01:11:01;;;;;;;6.55;1.52;;;;;;;2.46;71.80;100423.41;5044419;28;20044;-58
2022/02/07 01:16:35;;;;;;;2.13;1.92;;;;;;;2.38;73.55;100437.59;5047796;28;20064;-57
2022/02/07 01:19:18;;;;;;;1.33;1.23;;;;;;;2.37;73.09;100430.75;5045686;28;20067;-58
2022/02/07 01:22:09;;;;;;;2.50;1.52;;;;;;;2.38;72.88;100433.34;5053186;28;20078;-56
2022/02/07 01:47:06;;;;;;;1.35;0.93;;;;;;;2.21;74.01;100483.84;5046153;28;20147;-56
2022/02/07 01:50:05;;;;;;;1.35;1.25;;;;;;;2.23;74.28;100502.66;5040085;28;20049;-57
2022/02/07 01:52:36;;;;;;;1.00;0.93;;;;;;;2.21;74.54;100519.63;5043342;28;20080;-58
2022/02/07 01:57:50;;;;;;;2.60;1.35;;;;;;;2.22;73.81;100531.59;5041931;28;20477;-55
2022/02/07 02:00:17;;;;;;;4.53;1.33;;;;;;;2.21;73.76;100534.09;5047781;28;20053;-59
2022/02/07 02:02:44;;;;;;;1.00;0.60;;;;;;;2.20;73.80;100558.78;5041794;28;20435;-57
2022/02/07 02:05:11;;;;;;;3.42;1.10;;;;;;;2.17;74.15;100558.66;5050769;28;20513;-59
2022/02/07 02:07:40;;;;;;;3.35;1.05;;;;;;;2.15;73.78;100561.16;5045213;28;20041;-57
2022/02/07 02:10:08;;;;;;;2.20;1.15;;;;;;;2.17;73.53;100568.88;5046642;28;20046;-60
2022/02/07 02:12:43;;;;;;;1.30;1.13;;;;;;;2.15;74.21;100585.81;5048401;28;20488;-60
2022/02/07 02:15:27;;;;;;;4.43;1.45;;;;;;;2.10;72.93;100602.66;5045207;28;20049;-58
2022/02/07 02:37:26;;;;;;;5.32;1.40;;;;;;;1.85;72.66;100622.06;5047574;28;20057;-58
2022/02/07 02:45:32;;;;;;;6.80;1.40;;;;;;;1.70;73.82;100628.31;5049707;28;20084;-58
2022/02/07 02:48:04;;;;;;;2.20;1.52;;;;;;;1.68;74.29;100645.22;5060888;28;20101;-57
2022/02/07 02:50:33;;;;;;;5.20;2.47;;;;;;;1.67;73.51;100648.59;5048742;28;20049;-58
2022/02/07 02:53:04;;;;;;;4.00;1.48;;;;;;;1.67;73.27;100658.81;5052074;28;20052;-57
2022/02/07 02:55:32;;;;;;;8.68;2.40;;;;;;;1.63;74.38;100662.91;5048218;28;20088;-56
2022/02/07 02:57:59;;;;;;;3.20;0.80;;;;;;;1.62;72.96;100660.28;5052456;28;20053;-57
2022/02/07 03:00:32;;;;;;;6.35;1.63;;;;;;;1.59;73.46;100670.38;5048805;28;20098;-57
2022/02/07 03:02:59;;;;;;;2.90;1.38;;;;;;;1.58;73.23;100668.63;5047851;28;20575;-57
2022/02/07 03:05:26;;;;;;;2.30;1.50;;;;;;;1.54;73.77;100681.25;5054039;28;20041;-57
2022/02/07 03:07:52;;;;;;;1.60;1.25;;;;;;;1.52;74.18;100689.66;5047463;28;20045;-57
2022/02/07 03:10:27;;;;;;;4.60;1.00;;;;;;;1.50;74.42;100691.25;5050476;28;20095;-51
2022/02/07 03:13:14;;;;;;;6.80;1.95;;;;;;;1.48;74.38;100687.75;5048368;28;20116;-57
2022/02/07 03:18:29;;;;;;;1.17;1.10;;;;;;;1.44;73.90;100696.97;5063286;28;20045;-56
2022/02/07 03:20:57;;;;;;;5.75;1.08;;;;;;;1.43;74.09;100700.31;5050095;28;20049;-56
2022/02/07 03:23:24;;;;;;;2.25;1.08;;;;;;;1.41;73.95;100713.03;5051402;28;20053;-57
2022/02/07 03:25:51;;;;;;;3.42;0.50;;;;;;;1.40;74.17;100707.84;5052350;28;20607;-57
2022/02/07 03:28:18;;;;;;;4.47;1.33;;;;;;;1.38;74.13;100702.66;5049336;28;20098;-60
2022/02/07 03:30:45;;;;;;;5.70;1.50;;;;;;;1.39;73.91;100714.63;5056824;28;20103;-57
2022/02/07 03:33:12;;;;;;;4.78;1.45;;;;;;;1.38;74.86;100715.44;5041918;28;20049;-59
2022/02/07 03:35:39;;;;;;;5.28;1.02;;;;;;;1.39;75.37;100723.97;5055379;28;20048;-57
2022/02/07 03:38:07;;;;;;;7.40;1.25;;;;;;;1.38;75.15;100728.19;5046186;28;20093;-60
2022/02/07 03:40:34;;;;;;;5.15;1.27;;;;;;;1.38;74.66;100723.09;5055919;28;20049;-58
2022/02/07 03:43:01;;;;;;;5.97;1.40;;;;;;;1.37;74.12;100726.44;5048170;28;20048;-58
2022/02/07 03:45:27;;;;;;;4.35;0.95;;;;;;;1.39;74.53;100729.94;5046423;28;20402;-59
2022/02/07 03:47:54;;;;;;;2.80;0.90;;;;;;;1.42;75.02;100734.31;5052224;28;20407;-57
2022/02/07 03:50:21;;;;;;;6.07;2.15;;;;;;;1.45;74.39;100743.81;5048244;28;20060;-56
2022/02/07 03:52:50;;;;;;;3.20;1.33;;;;;;;1.43;74.80;100741.19;5053652;28;20106;-56
2022/02/07 03:55:17;;;;;;;6.03;1.38;;;;;;;1.43;75.81;100745.41;5044780;28;20540;-59
2022/02/07 03:57:44;;;;;;;4.90;1.38;;;;;;;1.44;75.82;100753.13;5050504;28;20068;-58
2022/02/07 04:00:13;;;;;;;1.83;1.13;;;;;;;1.45;75.86;100756.56;5047182;28;20084;-54
2022/02/07 04:02:43;;;;;;;4.60;1.65;;;;;;;1.45;75.33;100748.91;5051755;28;20066;-59
2022/02/07 04:05:57;;;;;;;2.13;1.10;;;;;;;1.44;75.17;100757.34;5052737;28;20053;-59
2022/02/07 04:07:57;;;;;;;5.22;1.10;;;;;;;1.44;74.79;100752.25;5046092;28;20450;-56
2022/02/07 04:10:25;;;;;;;5.00;1.55;;;;;;;1.42;75.42;100764.97;5061535;28;20048;-56
2022/02/07 04:12:58;;;;;;;8.85;1.60;;;;;;;1.42;75.27;100775.19;5048147;28;20497;-57
2022/02/07 04:15:24;;;;;;;5.85;1.60;;;;;;;1.40;75.39;100771.66;5054600;28;20570;-58
2022/02/07 04:17:57;;;;;;;2.75;1.45;;;;;;;1.39;75.49;100770.78;5049945;28;20735;-55
2022/02/07 04:20:23;;;;;;;6.75;1.33;;;;;;;1.39;75.46;100782.69;5042642;28;20045;-58
2022/02/07 04:22:50;;;;;;;7.05;1.58;;;;;;;1.38;74.95;100778.34;5058287;28;20052;-55
2022/02/07 04:25:17;;;;;;;4.13;1.70;;;;;;;1.36;75.92;100780.88;5045564;28;20103;-58
2022/02/07 04:27:45;;;;;;;7.18;1.20;;;;;;;1.35;74.54;100773.13;5061633;28;20048;-55
2022/02/07 04:30:12;;;;;;;10.38;1.75;;;;;;;1.34;75.11;100773.91;5042777;28;20056;-58
2022/02/07 04:32:39;;;;;;;4.63;1.85;;;;;;;1.31;75.09;100776.34;5056975;28;20049;-55
2022/02/07 04:35:05;;;;;;;7.47;1.48;;;;;;;1.31;74.81;100771.25;5043600;28;20053;-55
2022/02/07 04:37:32;;;;;;;2.15;1.38;;;;;;;1.30;76.46;100779.69;5055033;28;20048;-56
2022/02/07 04:39:59;;;;;;;5.57;2.03;;;;;;;1.30;76.84;100764.38;5050473;28;20067;-54
2022/02/07 04:42:27;;;;;;;5.97;1.55;;;;;;;1.31;76.01;100758.47;5048711;28;20072;-56
2022/02/07 04:45:21;;;;;;;8.35;1.20;;;;;;;1.30;75.42;100751.59;5055970;28;20097;-56
2022/02/07 04:48:21;;;;;;;3.15;1.45;;;;;;;1.28;76.51;100767.72;5041410;28;20053;-59
2022/02/07 04:50:41;;;;;;;2.92;1.25;;;;;;;1.27;75.88;100766.00;5045152;28;20057;-53
2022/02/07 04:53:18;;;;;;;5.30;1.42;;;;;;;1.27;76.37;100778.75;5051017;28;20098;-55
2022/02/07 04:56:00;;;;;;;2.75;1.60;;;;;;;1.27;75.23;100781.31;5041840;28;20036;-58
2022/02/07 04:58:40;;;;;;;9.52;1.92;;;;;;;1.24;75.34;100790.47;5055275;28;20606;-56
2022/02/07 05:01:12;;;;;;;3.97;2.78;;;;;;;1.21;76.62;100795.47;5047694;28;20044;-55
2022/02/07 05:03:49;;;;;;;2.90;1.20;;;;;;;1.19;76.43;100805.59;5051895;28;20058;-57
2022/02/07 05:14:37;;;;;;;8.48;1.92;;;;;;;1.09;75.17;100798.28;5040866;28;20110;-54
2022/02/07 05:17:07;;;;;;;3.45;1.50;;;;;;;1.08;75.78;100799.09;5045033;28;20106;-55
2022/02/07 05:19:34;;;;;;;5.20;1.63;;;;;;;1.07;76.79;100793.09;5053801;28;20103;-55
2022/02/07 05:22:00;;;;;;;5.30;1.48;;;;;;;1.07;76.10;100795.66;5041919;28;20045;-57
2022/02/07 05:24:27;;;;;;;4.75;1.70;;;;;;;1.09;76.29;100805.94;5048905;28;20091;-56
2022/02/07 05:26:53;;;;;;;9.65;2.67;;;;;;;1.11;76.26;100804.31;5045038;28;20044;-56
2022/02/07 05:29:20;;;;;;;5.15;1.58;;;;;;;1.11;76.12;100811.97;5052832;28;20044;-56
2022/02/07 05:31:47;;;;;;;7.43;2.20;;;;;;;1.10;76.33;100828.09;5049066;28;20052;-56
2022/02/07 05:34:14;;;;;;;9.30;1.38;;;;;;;1.09;76.62;100837.44;5048913;28;20080;-54
2022/02/07 05:36:44;;;;;;;8.55;1.35;;;;;;;1.08;75.90;100834.81;5056097;28;20052;-56
2022/02/07 05:39:17;;;;;;;6.65;1.92;;;;;;;1.04;75.89;100826.13;5043153;28;20094;-56
2022/02/07 05:41:45;;;;;;;5.82;1.98;;;;;;;1.04;75.57;100832.91;5056256;28;20098;-53
2022/02/07 05:44:13;;;;;;;10.05;2.03;;;;;;;1.01;76.28;100836.16;5048247;28;20093;-54
2022/02/07 05:46:39;;;;;;;6.93;1.95;;;;;;;0.98;76.19;100836.03;5052861;28;20041;-57
2022/02/07 05:49:06;;;;;;;7.82;1.67;;;;;;;1.00;75.85;100842.97;5045147;28;20090;-54
2022/02/07 05:51:33;;;;;;;4.75;1.38;;;;;;;0.99;76.28;100845.44;5049962;28;20053;-58
2022/02/07 05:54:00;;;;;;;6.90;0.70;;;;;;;0.99;76.73;100845.44;5058984;28;20439;-57
2022/02/07 05:56:26;;;;;;;7.00;1.48;;;;;;;0.98;76.20;100847.09;5043345;28;20056;-57
2022/02/07 05:58:53;;;;;;;6.68;1.92;;;;;;;0.99;76.15;100851.44;5058727;28;20068;-55
2022/02/07 06:01:19;;;;;;;3.88;1.17;;;;;;;0.98;76.96;100859.88;5051561;28;20117;-55
2022/02/07 06:03:46;;;;;;;7.32;1.55;;;;;;;0.98;76.05;100880.28;5053540;28;20539;-55
2022/02/07 06:06:13;;;;;;;5.50;2.08;;;;;;;0.96;75.47;100893.75;5058747;28;20177;-57
2022/02/07 06:08:39;;;;;;;8.20;1.77;;;;;;;0.95;76.17;100894.56;5052677;28;20122;-59
2022/02/07 06:11:07;;;;;;;3.10;1.38;;;;;;;0.91;75.62;100893.50;5055671;28;20493;-56
2022/02/07 06:13:36;;;;;;;5.22;1.45;;;;;;;0.90;76.97;100899.41;5045369;28;20118;-57
2022/02/07 06:16:04;;;;;;;4.38;2.00;;;;;;;0.88;76.40;100903.59;5056886;28;20052;-54
2022/02/07 06:18:31;;;;;;;5.80;1.52;;;;;;;0.87;76.40;100918.00;5044506;28;20084;-57
2022/02/07 06:21:03;;;;;;;10.48;0.82;;;;;;;0.84;76.32;100907.63;5058621;28;20451;-58
2022/02/07 06:23:29;;;;;;;6.03;1.38;;;;;;;0.83;75.54;100905.00;5054629;28;20047;-55
2022/02/07 06:25:57;;;;;;;3.83;1.20;;;;;;;0.80;76.55;100907.41;5051357;28;20045;-55
2022/02/07 06:28:24;;;;;;;7.47;1.63;;;;;;;0.80;75.71;100907.41;5053960;28;20558;-55
2022/02/07 06:30:51;;;;;;;2.60;1.15;;;;;;;0.79;76.47;100923.50;5051839;28;20058;-54
2022/02/07 06:33:19;;;;;;;5.10;1.10;;;;;;;0.77;76.11;100931.97;5053304;28;20048;-57
2022/02/07 06:35:45;;;;;;;5.28;1.42;;;;;;;0.77;76.59;100942.16;5047784;28;20053;-59
2022/02/07 06:38:12;;;;;;;5.97;1.58;;;;;;;0.77;76.36;100942.16;5051280;28;20072;-58
2022/02/07 06:40:39;;;;;;;4.32;1.40;;;;;;;0.79;76.32;100938.81;5054150;28;20044;-55
2022/02/07 06:43:06;;;;;;;4.53;1.58;;;;;;;0.80;76.04;100940.56;5051863;28;20378;-57
2022/02/07 06:45:32;;;;;;;6.20;1.63;;;;;;;0.79;75.85;100946.47;5051037;28;20122;-58
2022/02/07 06:47:59;;;;;;;7.13;1.88;;;;;;;0.79;76.63;100954.09;5047624;28;20578;-54
2022/02/07 06:50:25;;;;;;;10.88;2.80;;;;;;;0.76;76.25;100960.81;5054667;28;20073;-56
2022/02/07 06:52:52;;;;;;;10.15;2.40;;;;;;;0.75;76.04;100964.16;5044800;28;20060;-57
2022/02/07 06:55:19;;;;;;;6.07;2.53;;;;;;;0.74;76.63;100977.69;5057644;28;20045;-58
2022/02/07 06:57:45;;;;;;;10.73;3.17;;;;;;;0.71;76.71;100977.53;5043640;28;20056;-54
2022/02/07 07:00:13;;;;;;;12.25;2.97;;;;;;;0.70;76.97;100970.69;5049871;28;20493;-55
2022/02/07 07:02:40;;;;;;;9.70;2.08;;;;;;;0.72;76.18;100984.41;5047209;28;20050;-57
2022/02/07 07:05:11;;;;;;;12.02;2.53;;;;;;;0.69;77.22;100991.91;5047788;28;20049;-56
2022/02/07 07:07:39;;;;;;;4.10;0.95;;;;;;;0.69;77.35;100994.44;5054549;28;20048;-53
2022/02/07 07:10:08;;;;;;;8.02;2.13;;;;;;;0.68;76.56;100992.69;5042586;28;20052;-56
2022/02/07 07:12:35;;;;;;;2.53;1.67;;;;;;;0.68;76.09;101007.13;5055894;28;20460;-58
2022/02/07 07:15:09;;;;;;;8.38;2.70;;;;;;;0.68;77.27;101013.09;5042545;28;20110;-53
2022/02/07 07:17:35;;;;;;;4.07;2.72;;;;;;;0.70;77.29;101020.81;5054202;28;20141;-55
2022/02/07 07:20:05;;;;;;;5.78;2.30;;;;;;;0.72;77.49;101024.31;5043464;28;20496;-55
2022/02/07 07:22:33;;;;;;;14.27;3.00;;;;;;;0.73;76.39;101026.97;5041339;28;20431;-58
2022/02/07 07:25:00;;;;;;;14.10;3.47;;;;;;;0.76;77.41;101052.63;5048023;28;20044;-57
2022/02/07 07:27:30;;;;;;;13.48;3.88;;;;;;;0.77;76.44;101049.28;5053652;28;20052;-56
2022/02/07 07:29:57;;;;;;;10.00;3.00;;;;;;;0.81;76.39;101075.81;5047378;28;20669;-56
2022/02/07 07:32:27;;;;;;;6.93;3.05;;;;;;;0.83;77.05;101083.56;5051367;28;20044;-54
2022/02/07 07:34:55;;;;;;;10.77;1.42;;;;;;;0.82;76.94;101076.72;5048640;28;20463;-55
2022/02/07 07:37:23;;;;;;;11.65;2.13;;;;;;;0.83;77.35;101093.75;5044989;28;20065;-57
2022/02/07 07:39:50;;;;;;;6.05;1.00;;;;;;;0.85;76.81;101107.50;5045271;28;20718;-54
2022/02/07 07:42:17;;;;;;;3.28;0.90;;;;;;;0.88;76.72;101112.75;5045238;28;20554;-52
2022/02/07 07:44:46;;;;;;;11.18;2.35;;;;;;;0.89;76.88;101114.50;5053470;28;20106;-53
2022/02/07 07:47:17;;;;;;;5.30;2.38;;;;;;;0.93;76.32;101116.44;5045683;28;20052;-55
2022/02/07 07:49:56;;;;;;;10.27;2.35;;;;;;;0.94;77.58;101097.75;5052083;28;20037;-58
2022/02/07 07:52:40;;;;;;;6.60;2.08;;;;;;;0.99;77.62;101091.25;5043754;28;20057;-56
2022/02/07 07:55:25;;;;;;;7.93;1.95;;;;;;;1.00;76.50;101097.22;5048150;28;20098;-56
2022/02/07 08:03:27;;;;;;;5.82;2.38;;;;;;;1.06;77.06;101129.84;5048979;28;20102;-57
2022/02/07 08:06:07;;;;;;;10.68;1.80;;;;;;;1.09;76.00;101123.25;5041801;28;20049;-53
2022/02/07 08:08:44;;;;;;;10.43;1.90;;;;;;;1.17;76.18;101115.97;5046835;28;20052;-53
2022/02/07 08:11:13;;;;;;;;;;;;;;;1.24;76.00;101112.94;5040450;28;20102;-55
2022/02/07 08:13:42;;;;;;;11.43;3.83;;;;;;;1.39;76.14;101101.78;5054356;28;19987;-59
2022/02/07 08:16:10;;;;;;;16.92;6.43;;;;;;;1.56;75.83;101109.44;5048105;28;20094;-55
2022/02/07 08:18:37;;;;;;;13.45;4.60;;;;;;;1.69;76.33;101114.34;5046950;28;20049;-54
2022/02/07 08:21:04;;;;;;;11.98;5.00;;;;;;;1.84;75.28;101115.94;5042076;28;20541;-54
2022/02/07 08:23:32;;;;;;;30.27;6.03;;;;;;;1.96;74.84;101101.22;5050895;28;20052;-55
2022/02/07 08:26:01;;;;;;;8.20;2.65;;;;;;;2.10;76.24;101106.16;5054754;28;20501;-56
2022/02/07 08:28:43;;;;;;;8.32;2.35;;;;;;;2.24;76.14;101107.69;5042116;28;20063;-58
2022/02/07 08:31:11;;;;;;;7.38;1.30;;;;;;;2.35;74.58;101100.53;5046827;28;21198;-56
2022/02/07 08:33:38;;;;;;;8.82;2.90;;;;;;;2.50;75.31;101113.16;5046656;28;20048;-55
2022/02/07 08:36:05;;;;;;;6.43;2.20;;;;;;;2.64;75.22;101124.03;5056553;28;20099;-56
2022/02/07 08:38:33;;;;;;;7.47;1.98;;;;;;;2.87;73.86;101125.94;5044450;28;20045;-57
2022/02/07 08:41:00;;;;;;;9.13;2.40;;;;;;;3.11;74.56;101112.53;5045185;28;20053;-53
2022/02/07 08:43:27;;;;;;;7.97;2.17;;;;;;;3.46;73.67;101118.31;5053514;28;20114;-57
2022/02/07 08:45:53;;;;;;;10.05;2.13;;;;;;;3.65;72.97;101119.13;5044980;28;20045;-57
2022/02/07 08:48:20;;;;;;;8.20;1.63;;;;;;;3.63;72.83;101115.59;5046401;28;20048;-54
2022/02/07 08:50:51;;;;;;;9.32;2.17;;;;;;;3.46;71.70;101102.94;5049711;28;20052;-58
2022/02/07 08:53:20;;;;;;;10.35;1.75;;;;;;;3.37;72.41;101102.56;5049327;28;20044;-59
2022/02/07 08:55:51;;;;;;;14.55;2.85;;;;;;;3.26;72.10;101099.50;5043253;28;20083;-59
2022/02/07 08:58:22;;;;;;;8.32;2.30;;;;;;;3.22;72.06;101112.16;5051421;28;20048;-58
2022/02/07 09:00:56;;;;;;;6.15;1.85;;;;;;;3.18;72.78;101112.00;5044160;28;20052;-58
2022/02/07 09:03:41;;;;;;;9.07;1.52;;;;;;;3.16;72.43;101113.59;5044064;28;20127;-57
2022/02/07 09:11:43;;;;;;;12.60;1.67;;;;;;;3.10;72.58;101123.56;5037920;28;20056;-60
2022/02/07 09:14:12;;;;;;;7.30;1.50;;;;;;;3.06;72.92;101115.75;5040403;28;20504;-59
2022/02/07 09:16:40;;;;;;;5.68;1.55;;;;;;;3.06;73.48;101115.75;5044750;28;20048;-60
2022/02/07 09:19:09;;;;;;;7.43;2.00;;;;;;;3.01;72.14;101109.53;5042823;28;20111;-57
2022/02/07 09:21:37;;;;;;;5.70;2.10;;;;;;;3.07;73.76;101099.56;5045760;28;20068;-60
2022/02/07 09:24:04;;;;;;;11.30;2.83;;;;;;;3.31;73.74;101109.16;5047754;28;20056;-59
2022/02/07 09:26:31;;;;;;;14.00;2.75;;;;;;;3.72;73.55;101116.03;5044428;28;20041;-60
2022/02/07 09:28:58;;;;;;;22.42;3.88;;;;;;;4.35;73.70;101112.59;5046197;28;20071;-58
2022/02/07 09:31:25;;;;;;;7.68;1.83;;;;;;;4.88;72.88;101113.75;5042710;28;20111;-59
2022/02/07 09:33:53;;;;;;;6.93;2.10;;;;;;;5.07;70.87;101123.00;5043711;28;20725;-60
2022/02/07 09:36:23;;;;;;;5.30;2.70;;;;;;;5.23;70.32;101131.28;5039020;28;20053;-59
2022/02/07 09:38:51;;;;;;;3.85;1.50;;;;;;;5.34;70.11;101127.41;5047708;28;20099;-59
2022/02/07 09:41:20;;;;;;;5.57;1.92;;;;;;;5.57;69.21;101114.50;5045862;28;20146;-59
2022/02/07 09:43:49;;;;;;;8.88;1.92;;;;;;;5.99;69.84;101117.63;5044975;28;20052;-60
2022/02/07 09:46:22;;;;;;;14.40;2.17;;;;;;;6.58;69.71;101116.97;5048308;28;20052;-57
2022/02/07 09:48:51;;;;;;;5.00;2.10;;;;;;;7.12;68.95;101112.53;5046784;28;20049;-60
2022/02/07 09:51:18;;;;;;;10.85;2.40;;;;;;;7.67;67.76;101117.47;5045492;28;20041;-59
2022/02/07 09:53:46;;;;;;;8.90;2.88;;;;;;;8.34;66.99;101110.50;5044874;28;20048;-62
2022/02/07 09:56:13;;;;;;;7.50;2.45;;;;;;;9.13;66.44;101119.16;5052687;28;20044;-60
2022/02/07 09:58:40;;;;;;;7.95;2.15;;;;;;;9.73;64.92;101110.81;5038997;28;20045;-61
2022/02/07 10:01:12;;;;;;;8.82;2.20;;;;;;;10.20;63.24;101107.25;5049348;28;20490;-55
2022/02/07 10:04:06;;;;;;;9.25;4.38;;;;;;;10.79;61.23;101110.75;5042391;28;20452;-57
2022/02/07 10:06:43;;;;;;;8.45;2.35;;;;;;;11.39;60.47;101116.66;5041144;28;20110;-60
2022/02/07 10:09:23;;;;;;;13.30;2.40;;;;;;;11.95;59.55;101132.75;5049070;28;20048;-58
2022/02/07 10:12:25;;;;;;;9.00;2.90;;;;;;;12.67;59.71;101135.94;5044577;28;20054;-59
2022/02/07 10:14:50;;;;;;;10.93;4.13;;;;;;;13.49;57.63;101132.84;5049534;28;20670;-59
2022/02/07 10:34:38;;;;;;;10.40;2.50;;;;;;;17.66;48.53;101160.06;5031665;28;20621;-61
2022/02/07 10:40:43;;;;;;;5.00;2.72;;;;;;;18.37;42.39;101168.59;5022601;28;20111;-63
2022/02/07 10:43:44;;;;;;;9.77;2.22;;;;;;;17.63;45.70;101154.88;5042143;28;20044;-58
2022/02/07 10:46:16;;;;;;;8.07;1.73;;;;;;;16.52;46.28;101148.31;5054984;28;20643;-59
2022/02/07 10:48:51;;;;;;;7.20;2.72;;;;;;;15.76;46.67;101151.53;5046458;28;20052;-61
2022/02/07 10:51:36;;;;;;;8.93;3.22;;;;;;;14.97;47.97;101140.63;5054690;28;20076;-56
2022/02/07 10:54:05;;;;;;;10.68;2.50;;;;;;;14.38;49.18;101140.72;5051078;28;20056;-51
2022/02/07 10:56:37;;;;;;;15.55;7.53;;;;;;;13.70;49.35;101136.34;5048484;28;20049;-58
2022/02/07 10:59:08;;;;;;;13.68;3.03;;;;;;;13.20;50.61;101138.78;5044818;28;20374;-59
2022/02/07 11:04:31;;;;;;;8.27;2.88;;;;;;;12.26;51.61;101147.78;5050246;28;20095;-59
2022/02/07 11:07:01;;;;;;;9.10;3.38;;;;;;;12.02;53.09;101152.72;5050846;28;20045;-58
2022/02/07 11:09:43;;;;;;;8.18;3.40;;;;;;;11.90;53.63;101158.69;5044704;28;20095;-61
2022/02/07 11:12:38;;;;;;;11.52;3.17;;;;;;;11.82;54.51;101150.81;5054340;28;20138;-58
2022/02/07 11:15:14;;;;;;;11.80;3.40;;;;;;;11.77;54.51;101147.31;5042611;28;20050;-59
2022/02/07 11:18:00;;;;;;;10.07;1.88;;;;;;;11.57;54.71;101144.50;5045770;28;20512;-57
2022/02/07 11:23:30;;;;;;;9.02;2.17;;;;;;;11.13;55.17;101143.13;5039539;28;20098;-61
2022/02/07 11:26:04;;;;;;;9.45;1.63;;;;;;;10.91;56.04;101148.06;5050760;28;20041;-61
2022/02/07 11:28:40;;;;;;;7.85;1.85;;;;;;;10.69;56.43;101150.34;5041761;28;20053;-55
2022/02/07 11:31:11;;;;;;;6.82;2.40;;;;;;;10.51;56.30;101144.00;5045708;28;20068;-55
2022/02/07 11:33:50;;;;;;;8.18;1.88;;;;;;;10.31;56.82;101141.09;5043070;28;20126;-58
2022/02/07 11:36:26;;;;;;;7.75;1.73;;;;;;;10.16;57.05;101139.13;5043875;28;20052;-59
2022/02/07 11:38:55;;;;;;;11.18;2.03;;;;;;;10.03;57.83;101136.34;5019778;28;20552;-57
2022/02/07 11:41:22;;;;;;;9.68;2.42;;;;;;;10.00;58.20;101133.69;5020221;28;20050;-58
2022/02/07 11:43:49;;;;;;;9.75;2.10;;;;;;;9.89;57.98;101137.81;5036877;28;20048;-58
2022/02/07 11:46:15;;;;;;;16.23;3.50;;;;;;;9.79;58.20;101141.09;5022461;28;20577;-54
2022/02/07 11:48:46;;;;;;;12.57;2.80;;;;;;;9.69;58.53;101133.13;5023912;28;20049;-56
2022/02/07 11:51:18;;;;;;;9.88;2.53;;;;;;;9.54;58.80;101132.84;5017171;28;20057;-57
2022/02/07 11:53:57;;;;;;;13.48;3.53;;;;;;;9.41;58.74;101124.88;5026751;28;20045;-56
2022/02/07 11:56:36;;;;;;;9.95;1.88;;;;;;;9.28;58.64;101128.06;5023848;28;20796;-58
2022/02/07 11:59:12;;;;;;;6.72;2.53;;;;;;;9.27;59.31;101132.34;5027818;28;20065;-55
2022/02/07 12:02:01;;;;;;;10.93;2.60;;;;;;;9.21;60.10;101137.38;5027775;28;20041;-59
2022/02/07 12:04:48;;;;;;;6.30;1.90;;;;;;;9.13;59.55;101132.06;5002093;28;20057;-57
2022/02/07 12:07:35;;;;;;;11.32;3.00;;;;;;;9.14;60.25;101126.06;5024820;28;20096;-56
2022/02/07 12:10:25;;;;;;;7.32;2.25;;;;;;;9.18;59.77;101127.88;5023666;28;20050;-56
2022/02/07 12:12:56;;;;;;;10.02;2.63;;;;;;;9.16;59.94;101132.16;5021826;28;20540;-57
2022/02/07 12:15:33;;;;;;;10.75;2.15;;;;;;;9.19;60.01;101145.09;5028958;28;20468;-57
2022/02/07 12:18:20;;;;;;;14.32;2.97;;;;;;;9.15;60.49;101140.72;5040745;28;20091;-55
2022/02/07 12:20:50;;;;;;;12.65;3.22;;;;;;;9.09;60.22;101138.03;5045898;28;21181;-60
2022/02/07 12:23:20;;;;;;;12.05;2.90;;;;;;;9.10;60.64;101129.41;5050641;28;20547;-57
2022/02/07 12:25:54;;;;;;;10.70;4.35;;;;;;;9.16;60.82;101126.09;5042832;28;20594;-56
2022/02/07 12:28:45;;;;;;;7.45;2.58;;;;;;;9.22;61.03;101124.50;5053322;28;20072;-55
2022/02/07 12:31:18;;;;;;;33.17;9.48;;;;;;;9.23;60.90;101121.06;5042610;28;20087;-58
2022/02/07 12:33:54;;;;;;;13.80;2.38;;;;;;;9.27;61.03;101132.34;5053263;28;20514;-53
2022/02/07 12:36:24;;;;;;;11.63;3.75;;;;;;;9.31;60.34;101128.09;5043989;28;20123;-58
2022/02/07 12:38:52;;;;;;;28.73;8.90;;;;;;;9.20;60.36;101125.31;5053241;28;20049;-53
2022/02/07 12:41:22;;;;;;;12.07;4.25;;;;;;;9.21;60.88;101122.75;5041678;28;20052;-57
2022/02/07 12:43:51;;;;;;;8.32;2.45;;;;;;;9.19;60.85;101118.41;5048344;28;20052;-58
2022/02/07 12:46:20;;;;;;;11.75;2.25;;;;;;;9.16;61.14;101120.91;5046772;28;20469;-60
2022/02/07 12:48:51;;;;;;;9.15;1.58;;;;;;;9.11;61.39;101120.81;5047702;28;20056;-54
2022/02/07 12:51:19;;;;;;;14.45;2.33;;;;;;;9.09;61.02;101114.75;5042250;28;20053;-58
2022/02/07 12:53:46;;;;;;;11.02;3.83;;;;;;;9.03;61.48;101117.22;5044653;28;20104;-56
2022/02/07 12:56:13;;;;;;;8.70;1.38;;;;;;;8.97;61.03;101123.13;5049117;28;20068;-53
2022/02/07 12:58:43;;;;;;;7.50;2.05;;;;;;;8.90;61.09;101116.97;5037043;28;20049;-52
2022/02/07 13:01:29;;;;;;;15.13;2.78;;;;;;;8.82;61.73;101110.75;5039052;28;20136;-57
2022/02/07 13:04:00;;;;;;;15.68;2.25;;;;;;;8.84;62.13;101104.78;5044901;28;20415;-57
2022/02/07 13:06:33;;;;;;;16.38;3.33;;;;;;;8.87;61.53;101106.53;5039758;28;20126;-57
2022/02/07 13:09:26;;;;;;;25.05;6.43;;;;;;;8.91;61.57;101095.44;5049195;28;20061;-57
2022/02/07 13:12:05;;;;;;;27.45;6.70;;;;;;;8.93;61.54;101090.31;5036858;28;20101;-58
2022/02/07 13:14:38;;;;;;;11.93;2.20;;;;;;;8.93;61.12;101091.19;5046203;28;20044;-55
2022/02/07 13:17:06;;;;;;;17.58;5.38;;;;;;;8.92;61.79;101089.41;5041107;28;20048;-55
2022/02/07 13:19:36;;;;;;;6.05;2.58;;;;;;;8.91;61.50;101092.84;5040426;28;20047;-55
2022/02/07 13:22:03;;;;;;;9.43;3.33;;;;;;;8.92;61.48;101104.06;5042020;28;20057;-57
2022/02/07 13:24:32;;;;;;;11.82;3.22;;;;;;;8.91;61.56;101081.66;5046944;28;20721;-58
2022/02/07 13:27:01;;;;;;;10.07;1.80;;;;;;;8.96;62.35;101075.75;5046601;28;20427;-59
2022/02/07 13:29:33;;;;;;;6.78;2.22;;;;;;;9.03;61.98;101075.84;5043453;28;20652;-57
2022/02/07 13:32:04;;;;;;;13.07;2.88;;;;;;;9.04;62.17;101077.59;5039932;28;20080;-57